Sanpo Maru No.7 — JD4178 — position and weather

sailwx.info

Track history (hours):
 
Tides and Currents Weather Stations Pressure Air Temp Water Temp Dewpoint Dewpoint Depression Visibility Wind Speed Wind Dir Waves Ship Positions

Sanpo Maru No.7

Last reported at 2018-Feb-23 00:28 UTC. Time now 2018-Feb-23 00:49 UTC.
Position N 34°57' E 136°40'.

Length 89 m; draft 5.7 m.

Type: Tanker. MMSI: 431009366.

Date/timePositionNaut miles runAvg speedWind from/ knotsBaromVisibWave heightAir tempDewpointWater temp
2018-Feb-23 00:28N 34°57' E 136°40'0 0.0
2018-Feb-22 23:58N 34°57' E 136°40'0 0.0
2018-Feb-22 23:28N 34°57' E 136°40'0 0.0
2018-Feb-22 22:58N 34°57' E 136°40'0 0.1
2018-Feb-22 22:30N 34°57' E 136°40'510.7
2018-Feb-22 22:00N 34°53' E 136°43'713.5
2018-Feb-22 21:30N 34°47' E 136°47'2013.3
2018-Feb-22 20:00N 34°32' E 137°03'10610.5
2018-Feb-22 09:54N 33°46' E 135°07'613.8
2018-Feb-22 09:30N 33°50' E 135°03'713.7
2018-Feb-22 09:00N 33°56' E 134°60'714.6
2018-Feb-22 08:30N 34°04' E 134°59'714.5
2018-Feb-22 08:00N 34°11' E 134°59'714.9
2018-Feb-22 07:30N 34°18' E 134°59'714.3
2018-Feb-22 07:00N 34°24' E 135°04'714.1
2018-Feb-22 06:30N 34°28' E 135°10'713.6
2018-Feb-22 06:00N 34°33' E 135°17'713.2
2018-Feb-22 05:30N 34°36' E 135°23'3 5.4
2018-Feb-22 05:00N 34°34' E 135°26'0 0.0
2018-Feb-22 04:28N 34°34' E 135°26'0 0.0
2018-Feb-22 03:58N 34°34' E 135°26'0 0.0
2018-Feb-22 03:28N 34°34' E 135°26'0 0.0
2018-Feb-22 03:00N 34°34' E 135°26'0 0.0
2018-Feb-22 02:30N 34°34' E 135°26'0 0.0
2018-Feb-22 02:00N 34°34' E 135°26'0 0.0
2018-Feb-22 01:30N 34°34' E 135°26'0 0.0
2018-Feb-22 01:00N 34°34' E 135°26'0 0.0
2018-Feb-22 00:30N 34°34' E 135°26'0 0.3
2018-Feb-22 00:00N 34°35' E 135°26'3 5.8
2018-Feb-21 23:30N 34°36' E 135°23'1 1.8
2018-Feb-21 23:00N 34°35' E 135°23'0 0.0
2018-Feb-21 22:30N 34°35' E 135°23'0 0.0
2018-Feb-21 22:00N 34°35' E 135°23'0 0.0
2018-Feb-21 21:30N 34°35' E 135°23'0 0.0
2018-Feb-21 21:00N 34°35' E 135°23'0 0.0
2018-Feb-21 20:30N 34°35' E 135°23'0 0.0
2018-Feb-21 20:00N 34°35' E 135°23'0 0.0
2018-Feb-21 19:30N 34°35' E 135°23'0 0.0
2018-Feb-21 19:00N 34°35' E 135°23'1 1.6
2018-Feb-21 18:30N 34°36' E 135°22'713.4
2018-Feb-21 18:01N 34°35' E 135°14'713.9
2018-Feb-21 17:30N 34°35' E 135°06'612.4
2018-Feb-21 17:00N 34°37' E 134°58'713.1
2018-Feb-21 16:31N 34°34' E 134°51'613.0
2018-Feb-21 16:01N 34°31' E 134°44'713.6
2018-Feb-21 15:30N 34°29' E 134°36'713.9
2018-Feb-21 15:00N 34°26' E 134°28'713.7
2018-Feb-21 14:30N 34°24' E 134°21'8111.9
2018-Feb-21 07:39N 34°01' E 132°46'212.7
2018-Feb-21 07:28N 33°59' E 132°45'713.0
2018-Feb-21 06:56N 33°52' E 132°42'1 0.2
2018-Feb-20 23:54N 33°51' E 132°42'0 0.1
2018-Feb-20 23:26N 33°51' E 132°42'1 3.1
2018-Feb-20 23:00N 33°52' E 132°41'1 0.8
2018-Feb-20 22:19N 33°52' E 132°40'0 0.0
2018-Feb-20 21:55N 33°52' E 132°40'0 0.0
2018-Feb-20 21:22N 33°52' E 132°40'2 5.4
2018-Feb-20 20:59N 33°54' E 132°42'7512.7
2018-Feb-20 15:05N 34°27' E 134°03'1314.4
2018-Feb-20 14:10N 34°24' E 134°19'214.2
2018-Feb-20 14:00N 34°25' E 134°22'714.3
2018-Feb-20 13:31N 34°27' E 134°30'714.1
2018-Feb-20 13:01N 34°30' E 134°38'714.3
2018-Feb-20 12:30N 34°33' E 134°45'714.6
2018-Feb-20 12:00N 34°36' E 134°54'713.3
2018-Feb-20 11:30N 34°37' E 135°02'713.2
2018-Feb-20 11:01N 34°36' E 135°09'713.5
2018-Feb-20 10:30N 34°36' E 135°18'612.7
2018-Feb-20 10:01N 34°36' E 135°25'1 2.5
2018-Feb-20 09:30N 34°34' E 135°26'0 0.0
2018-Feb-20 08:59N 34°34' E 135°26'0 0.0
2018-Feb-20 08:28N 34°34' E 135°26'0 0.0
2018-Feb-20 07:58N 34°34' E 135°26'0 0.0
2018-Feb-20 07:28N 34°34' E 135°26'0 0.0
2018-Feb-20 06:58N 34°34' E 135°26'0 0.0
2018-Feb-20 06:28N 34°34' E 135°26'0 0.0
2018-Feb-20 05:58N 34°34' E 135°26'0 0.0
2018-Feb-20 05:31N 34°34' E 135°26'0 0.0
2018-Feb-20 05:01N 34°34' E 135°26'0 0.0
2018-Feb-20 04:31N 34°34' E 135°26'0 0.0
2018-Feb-20 04:00N 34°34' E 135°26'0 0.0
2018-Feb-20 03:31N 34°34' E 135°26'0 1.0
2018-Feb-20 03:00N 34°35' E 135°25'3 5.5
2018-Feb-20 02:30N 34°36' E 135°22'1 1.4
2018-Feb-20 02:00N 34°36' E 135°23'0 0.1
2018-Feb-20 01:28N 34°36' E 135°23'0 0.0
2018-Feb-20 01:00N 34°36' E 135°23'0 0.1
2018-Feb-20 00:28N 34°36' E 135°23'0 0.0
2018-Feb-19 23:58N 34°36' E 135°23'0 0.0
2018-Feb-19 23:31N 34°36' E 135°23'0 0.0
2018-Feb-19 23:00N 34°36' E 135°23'0 0.1
2018-Feb-19 22:31N 34°36' E 135°23'0 0.0
2018-Feb-19 22:00N 34°36' E 135°23'4 8.3
2018-Feb-19 21:30N 34°33' E 135°19'713.9
2018-Feb-19 21:00N 34°29' E 135°13'713.6
2018-Feb-19 20:30N 34°24' E 135°07'613.0
2018-Feb-19 20:01N 34°19' E 135°01'611.4
2018-Feb-19 19:30N 34°14' E 134°59'713.2
2018-Feb-19 19:00N 34°07' E 134°60'713.3
2018-Feb-19 18:30N 34°01' E 135°00'713.1
2018-Feb-19 18:00N 33°54' E 135°02'10610.3
2018-Feb-19 07:44N 34°33' E 137°01'312.5
2018-Feb-19 07:30N 34°35' E 136°58'713.7
2018-Feb-19 07:00N 34°39' E 136°51'713.9
2018-Feb-19 06:30N 34°45' E 136°47'714.2
2018-Feb-19 06:01N 34°51' E 136°44'713.7
2018-Feb-19 05:30N 34°58' E 136°41'2 2.6
2018-Feb-19 04:54N 34°58' E 136°39'0 0.0
2018-Feb-19 04:25N 34°58' E 136°39'0 0.0
2018-Feb-19 03:55N 34°58' E 136°39'0 0.0
2018-Feb-19 03:25N 34°58' E 136°39'0 0.0
2018-Feb-19 02:55N 34°58' E 136°39'0 0.0
2018-Feb-19 02:30N 34°58' E 136°39'0 0.0
2018-Feb-19 02:01N 34°58' E 136°39'0 0.0
2018-Feb-19 01:30N 34°58' E 136°39'0 0.0
2018-Feb-19 01:00N 34°58' E 136°39'0 0.0
2018-Feb-19 00:31N 34°58' E 136°39'0 0.0
2018-Feb-18 23:58N 34°58' E 136°39'0 0.0
2018-Feb-18 23:29N 34°58' E 136°39'0 0.0
2018-Feb-18 23:00N 34°58' E 136°39'2 3.8
2018-Feb-18 22:30N 34°58' E 136°41'0 0.8
2018-Feb-18 21:59N 34°58' E 136°42'0 0.1
2018-Feb-18 21:26N 34°58' E 136°42'0 0.0
2018-Feb-18 20:56N 34°58' E 136°42'0 0.1
2018-Feb-18 20:29N 34°58' E 136°42'3 6.2
2018-Feb-18 20:00N 34°55' E 136°41'713.6
2018-Feb-18 19:30N 34°49' E 136°45'713.2
2018-Feb-18 19:00N 34°44' E 136°50'102 9.2
2018-Feb-18 07:59N 33°42' E 135°12'714.0
2018-Feb-18 07:31N 33°47' E 135°07'714.2
2018-Feb-18 07:01N 33°53' E 135°02'714.1
2018-Feb-18 06:30N 33°60' E 135°00'714.2
2018-Feb-18 06:01N 34°07' E 134°59'714.3
2018-Feb-18 05:30N 34°14' E 134°59'714.2
2018-Feb-18 05:00N 34°21' E 135°00'713.9
2018-Feb-18 04:30N 34°26' E 135°06'713.7
2018-Feb-18 04:00N 34°30' E 135°13'713.3
2018-Feb-18 03:30N 34°34' E 135°19'510.6
2018-Feb-18 03:00N 34°35' E 135°25'1 1.6
2018-Feb-18 02:30N 34°35' E 135°26'0 0.1
2018-Feb-18 02:00N 34°35' E 135°26'0 0.0
2018-Feb-18 01:30N 34°35' E 135°26'0 0.0
2018-Feb-18 01:00N 34°35' E 135°26'0 0.0
2018-Feb-18 00:30N 34°35' E 135°26'0 0.0
2018-Feb-18 00:01N 34°35' E 135°26'0 0.0
2018-Feb-17 23:30N 34°35' E 135°26'0 0.0
2018-Feb-17 23:00N 34°35' E 135°26'1 1.1
2018-Feb-17 22:31N 34°35' E 135°25'4 8.4
2018-Feb-17 22:00N 34°36' E 135°20'1 2.7
2018-Feb-17 21:30N 34°37' E 135°20'0 0.0
2018-Feb-17 21:00N 34°37' E 135°20'0 0.1
2018-Feb-17 20:30N 34°37' E 135°20'0 0.0
2018-Feb-17 20:00N 34°37' E 135°20'0 0.0
2018-Feb-17 19:30N 34°37' E 135°20'0 0.0
2018-Feb-17 19:00N 34°37' E 135°20'0 0.0
2018-Feb-17 18:30N 34°37' E 135°20'0 0.0
2018-Feb-17 18:00N 34°37' E 135°20'0 0.0
2018-Feb-17 17:30N 34°37' E 135°20'0 0.1
2018-Feb-17 17:00N 34°37' E 135°20'0 0.0
2018-Feb-17 16:30N 34°37' E 135°20'0 0.1
2018-Feb-17 16:00N 34°37' E 135°20'0 0.1
2018-Feb-17 15:30N 34°37' E 135°20'0 0.0
2018-Feb-17 15:00N 34°37' E 135°20'0 0.0
2018-Feb-17 14:30N 34°37' E 135°20'0 0.0
2018-Feb-17 14:00N 34°37' E 135°20'0 0.1
2018-Feb-17 13:30N 34°37' E 135°20'0 0.0
2018-Feb-17 13:00N 34°37' E 135°20'0 0.0
2018-Feb-17 12:30N 34°37' E 135°20'0 0.1
2018-Feb-17 12:00N 34°37' E 135°20'0 0.0
2018-Feb-17 11:27N 34°37' E 135°20'0 0.0
2018-Feb-17 11:00N 34°37' E 135°20'0 0.0
2018-Feb-17 10:30N 34°37' E 135°20'0 0.0
2018-Feb-17 10:00N 34°37' E 135°20'0 0.0
2018-Feb-17 09:30N 34°37' E 135°20'0 0.5
2018-Feb-17 09:00N 34°37' E 135°20'510.7
2018-Feb-17 08:30N 34°35' E 135°26'0 0.2
2018-Feb-17 07:59N 34°35' E 135°26'0 0.0
2018-Feb-17 07:29N 34°35' E 135°26'0 0.0
2018-Feb-17 06:59N 34°35' E 135°26'0 0.0
2018-Feb-17 06:29N 34°35' E 135°26'0 0.0
2018-Feb-17 05:59N 34°35' E 135°26'0 0.0
2018-Feb-17 05:29N 34°35' E 135°26'0 0.0
2018-Feb-17 04:59N 34°35' E 135°26'0 0.0
2018-Feb-17 04:29N 34°35' E 135°26'0 0.0
2018-Feb-17 03:59N 34°35' E 135°26'0 0.0
2018-Feb-17 03:29N 34°35' E 135°26'0 0.0
2018-Feb-17 02:59N 34°35' E 135°26'0 0.0
2018-Feb-17 02:29N 34°35' E 135°26'0 0.0
2018-Feb-17 01:59N 34°35' E 135°26'0 0.0
2018-Feb-17 01:26N 34°35' E 135°26'0 0.1
2018-Feb-17 00:59N 34°35' E 135°26'0 0.0
2018-Feb-17 00:29N 34°35' E 135°26'0 0.1
2018-Feb-16 23:59N 34°35' E 135°26'0 0.0
2018-Feb-16 23:29N 34°35' E 135°26'0 0.0
2018-Feb-16 22:59N 34°35' E 135°26'1 1.8
2018-Feb-16 22:31N 34°35' E 135°25'2 3.7
2018-Feb-16 22:01N 34°36' E 135°23'0 0.1
2018-Feb-16 21:28N 34°36' E 135°23'0 0.0
2018-Feb-16 20:58N 34°36' E 135°23'0 0.0
2018-Feb-16 20:28N 34°36' E 135°23'0 0.0
2018-Feb-16 19:58N 34°36' E 135°23'0 0.0
2018-Feb-16 19:28N 34°36' E 135°23'0 0.0
2018-Feb-16 18:58N 34°36' E 135°23'0 0.0
2018-Feb-16 18:28N 34°36' E 135°23'0 0.0
2018-Feb-16 17:58N 34°36' E 135°23'0 0.0
2018-Feb-16 17:28N 34°36' E 135°23'0 0.0
2018-Feb-16 16:58N 34°36' E 135°23'0 0.0
2018-Feb-16 16:25N 34°36' E 135°23'0 0.1
2018-Feb-16 15:58N 34°36' E 135°23'0 0.0
2018-Feb-16 15:28N 34°36' E 135°23'0 0.0
2018-Feb-16 14:58N 34°36' E 135°23'0 0.0
2018-Feb-16 14:28N 34°36' E 135°23'0 0.0
2018-Feb-16 13:58N 34°36' E 135°23'0 0.1
2018-Feb-16 13:28N 34°36' E 135°23'0 0.0
2018-Feb-16 12:58N 34°36' E 135°23'0 0.1
2018-Feb-16 12:28N 34°36' E 135°23'0 0.1
2018-Feb-16 11:58N 34°36' E 135°23'0 0.1
2018-Feb-16 11:28N 34°36' E 135°23'3 5.7
2018-Feb-16 11:01N 34°34' E 135°20'713.5
2018-Feb-16 10:30N 34°30' E 135°14'713.8
2018-Feb-16 10:00N 34°25' E 135°08'713.5
2018-Feb-16 09:30N 34°20' E 135°02'612.8
2018-Feb-16 09:00N 34°14' E 134°59'713.6
2018-Feb-16 08:30N 34°08' E 134°59'713.5
2018-Feb-16 08:00N 34°01' E 135°00'713.4
2018-Feb-16 07:30N 33°54' E 135°01'19111.4
2018-Feb-15 14:44N 34°35' E 138°48'612.0
2018-Feb-15 14:15N 34°35' E 138°55'411.7
2018-Feb-15 13:52N 34°38' E 138°59'512.3
2018-Feb-15 13:29N 34°41' E 139°03'713.3
2018-Feb-15 12:57N 34°46' E 139°09'1012.6
2018-Feb-15 12:11N 34°52' E 139°18'1111.6
2018-Feb-15 11:12N 34°59' E 139°29'413.4
2018-Feb-15 10:54N 35°02' E 139°33'513.5
2018-Feb-15 10:30N 35°05' E 139°38'713.6
2018-Feb-15 10:01N 35°10' E 139°44'612.5
2018-Feb-15 09:31N 35°16' E 139°46'611.2
2018-Feb-15 09:00N 35°21' E 139°42'612.9
2018-Feb-15 08:30N 35°26' E 139°46'714.0
2018-Feb-15 08:00N 35°30' E 139°53'714.0
2018-Feb-15 07:30N 35°33' E 140°01'3 6.3
2018-Feb-15 07:01N 35°33' E 140°05'0 0.0
2018-Feb-15 06:23N 35°33' E 140°05'0 0.0
2018-Feb-15 05:59N 35°33' E 140°05'0 0.0
2018-Feb-15 05:29N 35°33' E 140°05'0 0.0
2018-Feb-15 04:59N 35°33' E 140°05'0 0.0
2018-Feb-15 04:29N 35°33' E 140°05'0 0.0
2018-Feb-15 03:59N 35°33' E 140°05'0 0.0
2018-Feb-15 03:29N 35°33' E 140°05'0 0.0
2018-Feb-15 02:59N 35°33' E 140°05'0 0.0
2018-Feb-15 02:29N 35°33' E 140°05'0 0.0
2018-Feb-15 01:56N 35°33' E 140°05'0 0.0
2018-Feb-15 01:29N 35°33' E 140°05'0 0.0
2018-Feb-15 00:56N 35°33' E 140°05'0 0.0
2018-Feb-15 00:26N 35°33' E 140°05'0 0.0
2018-Feb-14 23:59N 35°33' E 140°05'0 0.7
2018-Feb-14 23:30N 35°33' E 140°05'3 4.4
2018-Feb-14 22:55N 35°33' E 140°02'0 0.0
2018-Feb-14 22:19N 35°33' E 140°02'0 0.0
2018-Feb-14 21:55N 35°33' E 140°02'0 0.2
2018-Feb-14 21:28N 35°33' E 140°02'0 0.0
2018-Feb-14 20:55N 35°33' E 140°02'0 0.0
2018-Feb-14 20:25N 35°33' E 140°02'0 0.0
2018-Feb-14 19:58N 35°33' E 140°02'0 0.0
2018-Feb-14 19:25N 35°33' E 140°02'1 3.3
2018-Feb-14 19:00N 35°32' E 140°00'714.6
2018-Feb-14 18:31N 35°29' E 139°52'714.4
2018-Feb-14 18:01N 35°24' E 139°46'611.8
2018-Feb-14 17:30N 35°18' E 139°45'612.4
2018-Feb-14 17:01N 35°12' E 139°47'713.6
2018-Feb-14 16:30N 35°05' E 139°45'714.4
2018-Feb-14 16:01N 35°00' E 139°38'815.7
2018-Feb-14 15:30N 34°55' E 139°31'917.5
2018-Feb-14 15:00N 34°50' E 139°22'816.5
2018-Feb-14 14:30N 34°45' E 139°14'816.1
2018-Feb-14 14:00N 34°40' E 139°07'815.7
2018-Feb-14 13:30N 34°36' E 138°58'816.2
2018-Feb-14 13:00N 34°34' E 138°49'814.9
2018-Feb-14 12:30N 34°34' E 138°40'714.2
2018-Feb-14 11:59N 34°33' E 138°31'714.2
2018-Feb-14 11:30N 34°33' E 138°23'814.7
2018-Feb-14 10:59N 34°33' E 138°13'815.1
2018-Feb-14 10:26N 34°33' E 138°03'3314.0
2018-Feb-14 08:04N 34°33' E 137°23'114.2
2018-Feb-14 08:00N 34°32' E 137°22'714.5
2018-Feb-14 07:30N 34°32' E 137°13'814.1
2018-Feb-14 06:56N 34°32' E 137°03'612.9
2018-Feb-14 06:30N 34°35' E 136°58'713.7
2018-Feb-14 06:00N 34°40' E 136°51'713.7
2018-Feb-14 05:30N 34°45' E 136°47'714.1
2018-Feb-14 05:01N 34°52' E 136°43'612.8
2018-Feb-14 04:30N 34°58' E 136°40'0 0.3
2018-Feb-14 04:00N 34°58' E 136°40'0 0.0
2018-Feb-14 03:30N 34°58' E 136°40'1 1.5
2018-Feb-14 03:00N 34°58' E 136°41'2 3.3
2018-Feb-14 02:30N 34°58' E 136°39'0 0.0
2018-Feb-14 02:00N 34°58' E 136°39'0 0.0
2018-Feb-14 01:30N 34°58' E 136°39'0 0.0
2018-Feb-14 01:00N 34°58' E 136°39'0 0.6
2018-Feb-14 00:30N 34°58' E 136°39'0 0.0
2018-Feb-14 00:00N 34°58' E 136°39'0 0.0
2018-Feb-13 23:30N 34°58' E 136°39'0 0.0
2018-Feb-13 23:00N 34°58' E 136°39'1 2.7
2018-Feb-13 22:30N 34°57' E 136°40'0 0.4
2018-Feb-13 22:00N 34°57' E 136°40'0 0.0
2018-Feb-13 21:30N 34°57' E 136°40'0 0.0
2018-Feb-13 21:00N 34°57' E 136°40'0 0.0
2018-Feb-13 20:30N 34°57' E 136°40'0 0.1
2018-Feb-13 20:00N 34°57' E 136°40'0 0.1
2018-Feb-13 19:28N 34°57' E 136°40'4 8.6
2018-Feb-13 19:00N 34°54' E 136°43'713.3
2018-Feb-13 18:30N 34°48' E 136°47'102 9.3
2018-Feb-13 07:31N 33°43' E 135°11'214.2
2018-Feb-13 07:22N 33°45' E 135°09'514.4
2018-Feb-13 06:59N 33°49' E 135°05'714.3
2018-Feb-13 06:31N 33°55' E 135°01'714.5
2018-Feb-13 06:00N 34°02' E 135°00'714.2
2018-Feb-13 05:30N 34°09' E 134°59'714.7
2018-Feb-13 05:00N 34°16' E 134°59'713.8
2018-Feb-13 04:31N 34°23' E 135°02'713.9
2018-Feb-13 04:00N 34°27' E 135°09'713.3
2018-Feb-13 03:30N 34°31' E 135°15'613.0
2018-Feb-13 03:00N 34°35' E 135°21'4 7.4
2018-Feb-13 02:29N 34°34' E 135°26'0 0.2
2018-Feb-13 01:56N 34°34' E 135°26'0 0.0
2018-Feb-13 01:29N 34°34' E 135°26'0 0.0
2018-Feb-13 00:59N 34°34' E 135°26'0 0.0
2018-Feb-13 00:29N 34°34' E 135°26'  
Track history (hours):
 
Tides and Currents Weather Stations Pressure Air Temp Water Temp Dewpoint Dewpoint Depression Visibility Wind Speed Wind Dir Waves Ship Positions

Sanpo Maru No.7

Last reported at 2018-Feb-23 00:28 UTC. Time now 2018-Feb-23 00:49 UTC.
Position N 34°57' E 136°40'.

Length 89 m; draft 5.7 m.

Type: Tanker. MMSI: 431009366.

Date/timePositionNaut miles runAvg speedWind from/ knotsBaromVisibWave heightAir tempDewpointWater temp
2018-Feb-23 00:28N 34°57' E 136°40'0 0.0
2018-Feb-22 23:58N 34°57' E 136°40'0 0.0
2018-Feb-22 23:28N 34°57' E 136°40'0 0.0
2018-Feb-22 22:58N 34°57' E 136°40'0 0.1
2018-Feb-22 22:30N 34°57' E 136°40'510.7
2018-Feb-22 22:00N 34°53' E 136°43'713.5
2018-Feb-22 21:30N 34°47' E 136°47'2013.3
2018-Feb-22 20:00N 34°32' E 137°03'10610.5
2018-Feb-22 09:54N 33°46' E 135°07'613.8
2018-Feb-22 09:30N 33°50' E 135°03'713.7
2018-Feb-22 09:00N 33°56' E 134°60'714.6
2018-Feb-22 08:30N 34°04' E 134°59'714.5
2018-Feb-22 08:00N 34°11' E 134°59'714.9
2018-Feb-22 07:30N 34°18' E 134°59'714.3
2018-Feb-22 07:00N 34°24' E 135°04'714.1
2018-Feb-22 06:30N 34°28' E 135°10'713.6
2018-Feb-22 06:00N 34°33' E 135°17'713.2
2018-Feb-22 05:30N 34°36' E 135°23'3 5.4
2018-Feb-22 05:00N 34°34' E 135°26'0 0.0
2018-Feb-22 04:28N 34°34' E 135°26'0 0.0
2018-Feb-22 03:58N 34°34' E 135°26'0 0.0
2018-Feb-22 03:28N 34°34' E 135°26'0 0.0
2018-Feb-22 03:00N 34°34' E 135°26'0 0.0
2018-Feb-22 02:30N 34°34' E 135°26'0 0.0
2018-Feb-22 02:00N 34°34' E 135°26'0 0.0
2018-Feb-22 01:30N 34°34' E 135°26'0 0.0
2018-Feb-22 01:00N 34°34' E 135°26'0 0.0
2018-Feb-22 00:30N 34°34' E 135°26'0 0.3
2018-Feb-22 00:00N 34°35' E 135°26'3 5.8
2018-Feb-21 23:30N 34°36' E 135°23'1 1.8
2018-Feb-21 23:00N 34°35' E 135°23'0 0.0
2018-Feb-21 22:30N 34°35' E 135°23'0 0.0
2018-Feb-21 22:00N 34°35' E 135°23'0 0.0
2018-Feb-21 21:30N 34°35' E 135°23'0 0.0
2018-Feb-21 21:00N 34°35' E 135°23'0 0.0
2018-Feb-21 20:30N 34°35' E 135°23'0 0.0
2018-Feb-21 20:00N 34°35' E 135°23'0 0.0
2018-Feb-21 19:30N 34°35' E 135°23'0 0.0
2018-Feb-21 19:00N 34°35' E 135°23'1 1.6
2018-Feb-21 18:30N 34°36' E 135°22'713.4
2018-Feb-21 18:01N 34°35' E 135°14'713.9
2018-Feb-21 17:30N 34°35' E 135°06'612.4
2018-Feb-21 17:00N 34°37' E 134°58'713.1
2018-Feb-21 16:31N 34°34' E 134°51'613.0
2018-Feb-21 16:01N 34°31' E 134°44'713.6
2018-Feb-21 15:30N 34°29' E 134°36'713.9
2018-Feb-21 15:00N 34°26' E 134°28'713.7
2018-Feb-21 14:30N 34°24' E 134°21'8111.9
2018-Feb-21 07:39N 34°01' E 132°46'212.7
2018-Feb-21 07:28N 33°59' E 132°45'713.0
2018-Feb-21 06:56N 33°52' E 132°42'1 0.2
2018-Feb-20 23:54N 33°51' E 132°42'0 0.1
2018-Feb-20 23:26N 33°51' E 132°42'1 3.1
2018-Feb-20 23:00N 33°52' E 132°41'1 0.8
2018-Feb-20 22:19N 33°52' E 132°40'0 0.0
2018-Feb-20 21:55N 33°52' E 132°40'0 0.0
2018-Feb-20 21:22N 33°52' E 132°40'2 5.4
2018-Feb-20 20:59N 33°54' E 132°42'7512.7
2018-Feb-20 15:05N 34°27' E 134°03'1314.4
2018-Feb-20 14:10N 34°24' E 134°19'214.2
2018-Feb-20 14:00N 34°25' E 134°22'714.3
2018-Feb-20 13:31N 34°27' E 134°30'714.1
2018-Feb-20 13:01N 34°30' E 134°38'714.3
2018-Feb-20 12:30N 34°33' E 134°45'714.6
2018-Feb-20 12:00N 34°36' E 134°54'713.3
2018-Feb-20 11:30N 34°37' E 135°02'713.2
2018-Feb-20 11:01N 34°36' E 135°09'713.5
2018-Feb-20 10:30N 34°36' E 135°18'612.7
2018-Feb-20 10:01N 34°36' E 135°25'1 2.5
2018-Feb-20 09:30N 34°34' E 135°26'0 0.0
2018-Feb-20 08:59N 34°34' E 135°26'0 0.0
2018-Feb-20 08:28N 34°34' E 135°26'0 0.0
2018-Feb-20 07:58N 34°34' E 135°26'0 0.0
2018-Feb-20 07:28N 34°34' E 135°26'0 0.0
2018-Feb-20 06:58N 34°34' E 135°26'0 0.0
2018-Feb-20 06:28N 34°34' E 135°26'0 0.0
2018-Feb-20 05:58N 34°34' E 135°26'0 0.0
2018-Feb-20 05:31N 34°34' E 135°26'0 0.0
2018-Feb-20 05:01N 34°34' E 135°26'0 0.0
2018-Feb-20 04:31N 34°34' E 135°26'0 0.0
2018-Feb-20 04:00N 34°34' E 135°26'0 0.0
2018-Feb-20 03:31N 34°34' E 135°26'0 1.0
2018-Feb-20 03:00N 34°35' E 135°25'3 5.5
2018-Feb-20 02:30N 34°36' E 135°22'1 1.4
2018-Feb-20 02:00N 34°36' E 135°23'0 0.1
2018-Feb-20 01:28N 34°36' E 135°23'0 0.0
2018-Feb-20 01:00N 34°36' E 135°23'0 0.1
2018-Feb-20 00:28N 34°36' E 135°23'0 0.0
2018-Feb-19 23:58N 34°36' E 135°23'0 0.0
2018-Feb-19 23:31N 34°36' E 135°23'0 0.0
2018-Feb-19 23:00N 34°36' E 135°23'0 0.1
2018-Feb-19 22:31N 34°36' E 135°23'0 0.0
2018-Feb-19 22:00N 34°36' E 135°23'4 8.3
2018-Feb-19 21:30N 34°33' E 135°19'713.9
2018-Feb-19 21:00N 34°29' E 135°13'713.6
2018-Feb-19 20:30N 34°24' E 135°07'613.0
2018-Feb-19 20:01N 34°19' E 135°01'611.4
2018-Feb-19 19:30N 34°14' E 134°59'713.2
2018-Feb-19 19:00N 34°07' E 134°60'713.3
2018-Feb-19 18:30N 34°01' E 135°00'713.1
2018-Feb-19 18:00N 33°54' E 135°02'10610.3
2018-Feb-19 07:44N 34°33' E 137°01'312.5
2018-Feb-19 07:30N 34°35' E 136°58'713.7
2018-Feb-19 07:00N 34°39' E 136°51'713.9
2018-Feb-19 06:30N 34°45' E 136°47'714.2
2018-Feb-19 06:01N 34°51' E 136°44'713.7
2018-Feb-19 05:30N 34°58' E 136°41'2 2.6
2018-Feb-19 04:54N 34°58' E 136°39'0 0.0
2018-Feb-19 04:25N 34°58' E 136°39'0 0.0
2018-Feb-19 03:55N 34°58' E 136°39'0 0.0
2018-Feb-19 03:25N 34°58' E 136°39'0 0.0
2018-Feb-19 02:55N 34°58' E 136°39'0 0.0
2018-Feb-19 02:30N 34°58' E 136°39'0 0.0
2018-Feb-19 02:01N 34°58' E 136°39'0 0.0
2018-Feb-19 01:30N 34°58' E 136°39'0 0.0
2018-Feb-19 01:00N 34°58' E 136°39'0 0.0
2018-Feb-19 00:31N 34°58' E 136°39'0 0.0
2018-Feb-18 23:58N 34°58' E 136°39'0 0.0
2018-Feb-18 23:29N 34°58' E 136°39'0 0.0
2018-Feb-18 23:00N 34°58' E 136°39'2 3.8
2018-Feb-18 22:30N 34°58' E 136°41'0 0.8
2018-Feb-18 21:59N 34°58' E 136°42'0 0.1
2018-Feb-18 21:26N 34°58' E 136°42'0 0.0
2018-Feb-18 20:56N 34°58' E 136°42'0 0.1
2018-Feb-18 20:29N 34°58' E 136°42'3 6.2
2018-Feb-18 20:00N 34°55' E 136°41'713.6
2018-Feb-18 19:30N 34°49' E 136°45'713.2
2018-Feb-18 19:00N 34°44' E 136°50'102 9.2
2018-Feb-18 07:59N 33°42' E 135°12'714.0
2018-Feb-18 07:31N 33°47' E 135°07'714.2
2018-Feb-18 07:01N 33°53' E 135°02'714.1
2018-Feb-18 06:30N 33°60' E 135°00'714.2
2018-Feb-18 06:01N 34°07' E 134°59'714.3
2018-Feb-18 05:30N 34°14' E 134°59'714.2
2018-Feb-18 05:00N 34°21' E 135°00'713.9
2018-Feb-18 04:30N 34°26' E 135°06'713.7
2018-Feb-18 04:00N 34°30' E 135°13'713.3
2018-Feb-18 03:30N 34°34' E 135°19'510.6
2018-Feb-18 03:00N 34°35' E 135°25'1 1.6
2018-Feb-18 02:30N 34°35' E 135°26'0 0.1
2018-Feb-18 02:00N 34°35' E 135°26'0 0.0
2018-Feb-18 01:30N 34°35' E 135°26'0 0.0
2018-Feb-18 01:00N 34°35' E 135°26'0 0.0
2018-Feb-18 00:30N 34°35' E 135°26'0 0.0
2018-Feb-18 00:01N 34°35' E 135°26'0 0.0
2018-Feb-17 23:30N 34°35' E 135°26'0 0.0
2018-Feb-17 23:00N 34°35' E 135°26'1 1.1
2018-Feb-17 22:31N 34°35' E 135°25'4 8.4
2018-Feb-17 22:00N 34°36' E 135°20'1 2.7
2018-Feb-17 21:30N 34°37' E 135°20'0 0.0
2018-Feb-17 21:00N 34°37' E 135°20'0 0.1
2018-Feb-17 20:30N 34°37' E 135°20'0 0.0
2018-Feb-17 20:00N 34°37' E 135°20'0 0.0
2018-Feb-17 19:30N 34°37' E 135°20'0 0.0
2018-Feb-17 19:00N 34°37' E 135°20'0 0.0
2018-Feb-17 18:30N 34°37' E 135°20'0 0.0
2018-Feb-17 18:00N 34°37' E 135°20'0 0.0
2018-Feb-17 17:30N 34°37' E 135°20'0 0.1
2018-Feb-17 17:00N 34°37' E 135°20'0 0.0
2018-Feb-17 16:30N 34°37' E 135°20'0 0.1
2018-Feb-17 16:00N 34°37' E 135°20'0 0.1
2018-Feb-17 15:30N 34°37' E 135°20'0 0.0
2018-Feb-17 15:00N 34°37' E 135°20'0 0.0
2018-Feb-17 14:30N 34°37' E 135°20'0 0.0
2018-Feb-17 14:00N 34°37' E 135°20'0 0.1
2018-Feb-17 13:30N 34°37' E 135°20'0 0.0
2018-Feb-17 13:00N 34°37' E 135°20'0 0.0
2018-Feb-17 12:30N 34°37' E 135°20'0 0.1
2018-Feb-17 12:00N 34°37' E 135°20'0 0.0
2018-Feb-17 11:27N 34°37' E 135°20'0 0.0
2018-Feb-17 11:00N 34°37' E 135°20'0 0.0
2018-Feb-17 10:30N 34°37' E 135°20'0 0.0
2018-Feb-17 10:00N 34°37' E 135°20'0 0.0
2018-Feb-17 09:30N 34°37' E 135°20'0 0.5
2018-Feb-17 09:00N 34°37' E 135°20'510.7
2018-Feb-17 08:30N 34°35' E 135°26'0 0.2
2018-Feb-17 07:59N 34°35' E 135°26'0 0.0
2018-Feb-17 07:29N 34°35' E 135°26'0 0.0
2018-Feb-17 06:59N 34°35' E 135°26'0 0.0
2018-Feb-17 06:29N 34°35' E 135°26'0 0.0
2018-Feb-17 05:59N 34°35' E 135°26'0 0.0
2018-Feb-17 05:29N 34°35' E 135°26'0 0.0
2018-Feb-17 04:59N 34°35' E 135°26'0 0.0
2018-Feb-17 04:29N 34°35' E 135°26'0 0.0
2018-Feb-17 03:59N 34°35' E 135°26'0 0.0
2018-Feb-17 03:29N 34°35' E 135°26'0 0.0
2018-Feb-17 02:59N 34°35' E 135°26'0 0.0
2018-Feb-17 02:29N 34°35' E 135°26'0 0.0
2018-Feb-17 01:59N 34°35' E 135°26'0 0.0
2018-Feb-17 01:26N 34°35' E 135°26'0 0.1
2018-Feb-17 00:59N 34°35' E 135°26'0 0.0
2018-Feb-17 00:29N 34°35' E 135°26'0 0.1
2018-Feb-16 23:59N 34°35' E 135°26'0 0.0
2018-Feb-16 23:29N 34°35' E 135°26'0 0.0
2018-Feb-16 22:59N 34°35' E 135°26'1 1.8
2018-Feb-16 22:31N 34°35' E 135°25'2 3.7
2018-Feb-16 22:01N 34°36' E 135°23'0 0.1
2018-Feb-16 21:28N 34°36' E 135°23'0 0.0
2018-Feb-16 20:58N 34°36' E 135°23'0 0.0
2018-Feb-16 20:28N 34°36' E 135°23'0 0.0
2018-Feb-16 19:58N 34°36' E 135°23'0 0.0
2018-Feb-16 19:28N 34°36' E 135°23'0 0.0
2018-Feb-16 18:58N 34°36' E 135°23'0 0.0
2018-Feb-16 18:28N 34°36' E 135°23'0 0.0
2018-Feb-16 17:58N 34°36' E 135°23'0 0.0
2018-Feb-16 17:28N 34°36' E 135°23'0 0.0
2018-Feb-16 16:58N 34°36' E 135°23'0 0.0
2018-Feb-16 16:25N 34°36' E 135°23'0 0.1
2018-Feb-16 15:58N 34°36' E 135°23'0 0.0
2018-Feb-16 15:28N 34°36' E 135°23'0 0.0
2018-Feb-16 14:58N 34°36' E 135°23'0 0.0
2018-Feb-16 14:28N 34°36' E 135°23'0 0.0
2018-Feb-16 13:58N 34°36' E 135°23'0 0.1
2018-Feb-16 13:28N 34°36' E 135°23'0 0.0
2018-Feb-16 12:58N 34°36' E 135°23'0 0.1
2018-Feb-16 12:28N 34°36' E 135°23'0 0.1
2018-Feb-16 11:58N 34°36' E 135°23'0 0.1
2018-Feb-16 11:28N 34°36' E 135°23'3 5.7
2018-Feb-16 11:01N 34°34' E 135°20'713.5
2018-Feb-16 10:30N 34°30' E 135°14'713.8
2018-Feb-16 10:00N 34°25' E 135°08'713.5
2018-Feb-16 09:30N 34°20' E 135°02'612.8
2018-Feb-16 09:00N 34°14' E 134°59'713.6
2018-Feb-16 08:30N 34°08' E 134°59'713.5
2018-Feb-16 08:00N 34°01' E 135°00'713.4
2018-Feb-16 07:30N 33°54' E 135°01'19111.4
2018-Feb-15 14:44N 34°35' E 138°48'612.0
2018-Feb-15 14:15N 34°35' E 138°55'411.7
2018-Feb-15 13:52N 34°38' E 138°59'512.3
2018-Feb-15 13:29N 34°41' E 139°03'713.3
2018-Feb-15 12:57N 34°46' E 139°09'1012.6
2018-Feb-15 12:11N 34°52' E 139°18'1111.6
2018-Feb-15 11:12N 34°59' E 139°29'413.4
2018-Feb-15 10:54N 35°02' E 139°33'513.5
2018-Feb-15 10:30N 35°05' E 139°38'713.6
2018-Feb-15 10:01N 35°10' E 139°44'612.5
2018-Feb-15 09:31N 35°16' E 139°46'611.2
2018-Feb-15 09:00N 35°21' E 139°42'612.9
2018-Feb-15 08:30N 35°26' E 139°46'714.0
2018-Feb-15 08:00N 35°30' E 139°53'714.0
2018-Feb-15 07:30N 35°33' E 140°01'3 6.3
2018-Feb-15 07:01N 35°33' E 140°05'0 0.0
2018-Feb-15 06:23N 35°33' E 140°05'0 0.0
2018-Feb-15 05:59N 35°33' E 140°05'0 0.0
2018-Feb-15 05:29N 35°33' E 140°05'0 0.0
2018-Feb-15 04:59N 35°33' E 140°05'0 0.0
2018-Feb-15 04:29N 35°33' E 140°05'0 0.0
2018-Feb-15 03:59N 35°33' E 140°05'0 0.0
2018-Feb-15 03:29N 35°33' E 140°05'0 0.0
2018-Feb-15 02:59N 35°33' E 140°05'0 0.0
2018-Feb-15 02:29N 35°33' E 140°05'0 0.0
2018-Feb-15 01:56N 35°33' E 140°05'0 0.0
2018-Feb-15 01:29N 35°33' E 140°05'0 0.0
2018-Feb-15 00:56N 35°33' E 140°05'0 0.0
2018-Feb-15 00:26N 35°33' E 140°05'0 0.0
2018-Feb-14 23:59N 35°33' E 140°05'0 0.7
2018-Feb-14 23:30N 35°33' E 140°05'3 4.4
2018-Feb-14 22:55N 35°33' E 140°02'0 0.0
2018-Feb-14 22:19N 35°33' E 140°02'0 0.0
2018-Feb-14 21:55N 35°33' E 140°02'0 0.2
2018-Feb-14 21:28N 35°33' E 140°02'0 0.0
2018-Feb-14 20:55N 35°33' E 140°02'0 0.0
2018-Feb-14 20:25N 35°33' E 140°02'0 0.0
2018-Feb-14 19:58N 35°33' E 140°02'0 0.0
2018-Feb-14 19:25N 35°33' E 140°02'1 3.3
2018-Feb-14 19:00N 35°32' E 140°00'714.6
2018-Feb-14 18:31N 35°29' E 139°52'714.4
2018-Feb-14 18:01N 35°24' E 139°46'611.8
2018-Feb-14 17:30N 35°18' E 139°45'612.4
2018-Feb-14 17:01N 35°12' E 139°47'713.6
2018-Feb-14 16:30N 35°05' E 139°45'714.4
2018-Feb-14 16:01N 35°00' E 139°38'815.7
2018-Feb-14 15:30N 34°55' E 139°31'917.5
2018-Feb-14 15:00N 34°50' E 139°22'816.5
2018-Feb-14 14:30N 34°45' E 139°14'816.1
2018-Feb-14 14:00N 34°40' E 139°07'815.7
2018-Feb-14 13:30N 34°36' E 138°58'816.2
2018-Feb-14 13:00N 34°34' E 138°49'814.9
2018-Feb-14 12:30N 34°34' E 138°40'714.2
2018-Feb-14 11:59N 34°33' E 138°31'714.2
2018-Feb-14 11:30N 34°33' E 138°23'814.7
2018-Feb-14 10:59N 34°33' E 138°13'815.1
2018-Feb-14 10:26N 34°33' E 138°03'3314.0
2018-Feb-14 08:04N 34°33' E 137°23'114.2
2018-Feb-14 08:00N 34°32' E 137°22'714.5
2018-Feb-14 07:30N 34°32' E 137°13'814.1
2018-Feb-14 06:56N 34°32' E 137°03'612.9
2018-Feb-14 06:30N 34°35' E 136°58'713.7
2018-Feb-14 06:00N 34°40' E 136°51'713.7
2018-Feb-14 05:30N 34°45' E 136°47'714.1
2018-Feb-14 05:01N 34°52' E 136°43'612.8
2018-Feb-14 04:30N 34°58' E 136°40'0 0.3
2018-Feb-14 04:00N 34°58' E 136°40'0 0.0
2018-Feb-14 03:30N 34°58' E 136°40'1 1.5
2018-Feb-14 03:00N 34°58' E 136°41'2 3.3
2018-Feb-14 02:30N 34°58' E 136°39'0 0.0
2018-Feb-14 02:00N 34°58' E 136°39'0 0.0
2018-Feb-14 01:30N 34°58' E 136°39'0 0.0
2018-Feb-14 01:00N 34°58' E 136°39'0 0.6
2018-Feb-14 00:30N 34°58' E 136°39'0 0.0
2018-Feb-14 00:00N 34°58' E 136°39'0 0.0
2018-Feb-13 23:30N 34°58' E 136°39'0 0.0
2018-Feb-13 23:00N 34°58' E 136°39'1 2.7
2018-Feb-13 22:30N 34°57' E 136°40'0 0.4
2018-Feb-13 22:00N 34°57' E 136°40'0 0.0
2018-Feb-13 21:30N 34°57' E 136°40'0 0.0
2018-Feb-13 21:00N 34°57' E 136°40'0 0.0
2018-Feb-13 20:30N 34°57' E 136°40'0 0.1
2018-Feb-13 20:00N 34°57' E 136°40'0 0.1
2018-Feb-13 19:28N 34°57' E 136°40'4 8.6
2018-Feb-13 19:00N 34°54' E 136°43'713.3
2018-Feb-13 18:30N 34°48' E 136°47'102 9.3
2018-Feb-13 07:31N 33°43' E 135°11'214.2
2018-Feb-13 07:22N 33°45' E 135°09'514.4
2018-Feb-13 06:59N 33°49' E 135°05'714.3
2018-Feb-13 06:31N 33°55' E 135°01'714.5
2018-Feb-13 06:00N 34°02' E 135°00'714.2
2018-Feb-13 05:30N 34°09' E 134°59'714.7
2018-Feb-13 05:00N 34°16' E 134°59'713.8
2018-Feb-13 04:31N 34°23' E 135°02'713.9
2018-Feb-13 04:00N 34°27' E 135°09'713.3
2018-Feb-13 03:30N 34°31' E 135°15'613.0
2018-Feb-13 03:00N 34°35' E 135°21'4 7.4
2018-Feb-13 02:29N 34°34' E 135°26'0 0.2
2018-Feb-13 01:56N 34°34' E 135°26'0 0.0
2018-Feb-13 01:29N 34°34' E 135°26'0 0.0
2018-Feb-13 00:59N 34°34' E 135°26'0 0.0
2018-Feb-13 00:29N 34°34' E 135°26'  

Dump ship's entire track history